createdAt,value
2023-04-02T00:01:18.519Z,77.58
2023-04-02T00:03:53.821Z,77.73
2023-04-02T00:06:33.163Z,79.23
2023-04-02T00:09:22.922Z,79.99
2023-04-02T00:11:55.936Z,80.20
2023-04-02T00:14:27.751Z,81.04
2023-04-02T00:16:58.225Z,81.40
2023-04-02T00:19:36.059Z,82.17
2023-04-02T00:22:08.030Z,82.86
2023-04-02T00:24:38.629Z,82.92
2023-04-02T00:27:11.225Z,84.18
2023-04-02T00:29:53.518Z,84.50
2023-04-02T00:32:31.182Z,84.09
2023-04-02T00:35:00.620Z,82.67
2023-04-02T00:37:39.007Z,83.38
2023-04-02T00:40:21.135Z,83.57
2023-04-02T00:42:50.392Z,83.36
2023-04-02T00:45:32.180Z,83.19
2023-04-02T00:48:13.871Z,82.65
2023-04-02T00:50:45.130Z,81.23
2023-04-02T00:53:39.344Z,80.64
2023-04-02T00:56:16.944Z,81.68
2023-04-02T00:58:45.958Z,81.91
2023-04-02T01:01:19.886Z,81.52
2023-04-02T01:03:58.310Z,81.31
2023-04-02T01:06:31.205Z,81.64
2023-04-02T01:09:34.238Z,82.44
2023-04-02T01:12:25.026Z,82.90
2023-04-02T01:15:18.813Z,84.44
2023-04-02T01:18:46.528Z,85.88
2023-04-02T01:21:42.759Z,86.43
2023-04-02T01:24:14.856Z,87.24
2023-04-02T01:26:44.814Z,87.84
2023-04-02T01:29:33.320Z,88.46
2023-04-02T01:32:05.612Z,89.29
2023-04-02T01:34:35.127Z,89.57
2023-04-02T01:37:11.248Z,90.05
2023-04-02T01:40:06.773Z,90.06
2023-04-02T01:42:48.948Z,89.90
2023-04-02T01:45:21.971Z,91.61
2023-04-02T01:47:51.603Z,91.65
2023-04-02T01:50:33.652Z,91.88
2023-04-02T01:53:07.357Z,91.83
2023-04-02T01:55:49.935Z,90.72
2023-04-02T01:58:21.728Z,89.82
2023-04-02T02:01:14.820Z,90.14
2023-04-02T02:03:45.121Z,90.21
2023-04-02T02:06:16.245Z,89.38
2023-04-02T02:09:00.046Z,89.56
2023-04-02T02:11:30.761Z,89.57
2023-04-02T02:14:05.800Z,89.72
2023-04-02T02:16:42.072Z,89.87
2023-04-02T02:19:32.951Z,90.17
2023-04-02T02:22:26.471Z,90.75
2023-04-02T02:24:56.155Z,91.18
2023-04-02T02:27:46.966Z,92.24
2023-04-02T02:30:22.521Z,92.78
2023-04-02T02:32:58.721Z,92.45
2023-04-02T02:35:43.121Z,92.93
2023-04-02T02:38:30.728Z,92.97
2023-04-02T02:41:12.918Z,92.99
2023-04-02T02:43:47.710Z,93.50
2023-04-02T02:46:21.057Z,92.78
2023-04-02T02:48:51.285Z,93.55
2023-04-02T02:51:27.721Z,93.18
2023-04-02T02:54:03.301Z,93.51
2023-04-02T02:56:37.013Z,93.91
2023-04-02T02:59:08.740Z,92.00
2023-04-02T03:01:43.674Z,92.37
2023-04-02T03:04:12.095Z,92.40
2023-04-02T03:06:42.261Z,92.33
2023-04-02T03:09:31.508Z,92.55
2023-04-02T03:12:25.934Z,93.23
2023-04-02T03:15:21.789Z,91.78
2023-04-02T03:18:02.100Z,90.95
2023-04-02T03:20:55.783Z,90.67
2023-04-02T03:23:27.542Z,90.90
2023-04-02T03:26:16.306Z,89.85
2023-04-02T03:28:52.537Z,91.70
2023-04-02T03:31:30.066Z,92.39
2023-04-02T03:34:02.520Z,93.18
2023-04-02T03:36:38.664Z,94.88
2023-04-02T03:39:17.924Z,93.08
2023-04-02T03:42:02.659Z,93.06
2023-04-02T03:44:30.750Z,91.69
2023-04-02T03:47:09.251Z,91.68
2023-04-02T03:49:44.605Z,91.18
2023-04-02T03:52:18.145Z,91.81
2023-04-02T03:54:54.233Z,92.84
2023-04-02T03:57:46.745Z,94.18
2023-04-02T04:00:39.248Z,94.67
2023-04-02T04:03:17.853Z,94.59
2023-04-02T04:05:52.373Z,94.86
2023-04-02T04:08:29.482Z,94.66
2023-04-02T04:11:01.507Z,94.33
2023-04-02T04:14:11.775Z,94.73
2023-04-02T04:17:14.168Z,95.04
2023-04-02T04:20:15.272Z,95.65
2023-04-02T04:22:43.725Z,95.66
2023-04-02T04:25:34.005Z,95.17
2023-04-02T04:28:38.567Z,95.14
2023-04-02T04:31:27.229Z,95.69
2023-04-02T04:34:03.995Z,95.58
2023-04-02T04:36:54.577Z,95.09
2023-04-02T04:39:47.259Z,95.30
2023-04-02T04:42:24.831Z,94.70
2023-04-02T04:45:04.007Z,94.65
2023-04-02T04:47:39.204Z,94.64
2023-04-02T04:50:19.525Z,94.14
2023-04-02T04:52:47.616Z,94.18
2023-04-02T04:55:30.877Z,94.12
2023-04-02T04:58:24.192Z,93.79
2023-04-02T05:01:11.530Z,94.43
2023-04-02T05:03:58.407Z,94.84
2023-04-02T05:06:51.263Z,94.27
2023-04-02T05:09:42.315Z,93.67
2023-04-02T05:12:35.617Z,93.67
2023-04-02T05:15:31.553Z,93.79
2023-04-02T05:18:37.613Z,94.09
2023-04-02T05:21:18.821Z,91.89
2023-04-02T05:24:25.122Z,90.54
2023-04-02T05:27:01.108Z,88.39
2023-04-02T05:29:36.436Z,88.56
2023-04-02T05:32:14.222Z,87.75
2023-04-02T05:34:48.963Z,87.31
2023-04-02T05:37:21.706Z,86.95
2023-04-02T05:40:03.523Z,86.96
2023-04-02T05:42:36.028Z,87.16
2023-04-02T05:45:31.513Z,88.38
2023-04-02T05:48:08.220Z,89.38
2023-04-02T05:50:47.969Z,88.93
2023-04-02T05:53:40.408Z,90.32
2023-04-02T05:56:16.185Z,90.64
2023-04-02T05:58:51.856Z,91.26
2023-04-02T06:01:52.173Z,92.09
2023-04-02T06:04:57.914Z,92.30
2023-04-02T06:07:41.989Z,94.19
2023-04-02T06:10:25.007Z,92.18
2023-04-02T06:13:06.167Z,92.27
2023-04-02T06:15:39.087Z,91.96
2023-04-02T06:18:24.650Z,92.13
2023-04-02T06:20:53.926Z,91.81
2023-04-02T06:23:47.056Z,90.44
2023-04-02T06:26:35.553Z,90.61
2023-04-02T06:29:25.920Z,90.78
2023-04-02T06:31:59.581Z,88.94
2023-04-02T06:34:31.186Z,90.29
2023-04-02T06:37:30.555Z,89.72
2023-04-02T06:40:43.261Z,89.89
2023-04-02T06:43:41.459Z,87.74
2023-04-02T06:46:32.780Z,88.62
2023-04-02T06:49:24.817Z,89.01
2023-04-02T06:52:01.185Z,88.46
2023-04-02T06:54:32.933Z,89.26
2023-04-02T06:57:08.089Z,90.54
2023-04-02T06:59:41.630Z,91.21
2023-04-02T07:02:28.164Z,92.68
2023-04-02T07:05:03.952Z,92.78
2023-04-02T07:07:34.151Z,90.94
2023-04-02T07:10:07.207Z,90.83
2023-04-02T07:12:36.012Z,89.73
2023-04-02T07:15:05.901Z,89.99
2023-04-02T07:17:34.003Z,90.24
2023-04-02T07:20:02.237Z,88.76
2023-04-02T07:22:31.663Z,88.60
2023-04-02T07:25:15.082Z,86.50
2023-04-02T07:27:43.010Z,87.37
2023-04-02T07:30:11.336Z,87.03
2023-04-02T07:32:39.455Z,89.59
2023-04-02T07:35:08.475Z,88.63
2023-04-02T07:37:37.886Z,88.55
2023-04-02T07:40:09.340Z,88.88
2023-04-02T07:42:37.278Z,88.61
2023-04-02T07:45:06.209Z,89.40
2023-04-02T07:47:34.090Z,90.40
2023-04-02T07:50:01.996Z,90.23
2023-04-02T07:52:29.802Z,88.02
2023-04-02T07:54:57.728Z,87.37
2023-04-02T07:57:25.754Z,87.83
2023-04-02T07:59:56.713Z,87.29
2023-04-02T08:02:26.815Z,88.65
2023-04-02T08:04:54.826Z,86.34
2023-04-02T08:07:22.903Z,86.11
2023-04-02T08:09:50.860Z,85.75
2023-04-02T08:12:18.704Z,84.54
2023-04-02T08:14:47.000Z,84.75
2023-04-02T08:17:14.966Z,85.34
2023-04-02T08:19:54.245Z,84.88
2023-04-02T08:22:23.357Z,85.22
2023-04-02T08:24:51.267Z,83.32
2023-04-02T08:27:19.200Z,85.25
2023-04-02T08:29:47.075Z,81.56
2023-04-02T08:32:16.546Z,83.36
2023-04-02T08:34:45.620Z,84.69
2023-04-02T08:37:14.412Z,81.27
2023-04-02T08:39:42.399Z,81.60
2023-04-02T08:42:24.771Z,80.45
2023-04-02T08:45:23.083Z,77.31
2023-04-02T08:47:56.337Z,78.94
2023-04-02T08:50:33.022Z,78.28
2023-04-02T08:53:03.448Z,77.66
2023-04-02T08:56:06.027Z,77.30
2023-04-02T08:58:41.596Z,79.12
2023-04-02T09:01:41.656Z,83.30
2023-04-02T09:04:20.233Z,84.91
2023-04-02T09:06:51.626Z,83.33
2023-04-02T09:09:21.036Z,84.00
2023-04-02T09:12:04.642Z,85.40
2023-04-02T09:14:44.749Z,86.23
2023-04-02T09:17:23.128Z,85.44
2023-04-02T09:19:53.974Z,86.77
2023-04-02T09:22:31.835Z,85.78
2023-04-02T09:25:02.903Z,86.59
2023-04-02T09:27:34.694Z,87.19
2023-04-02T09:30:58.655Z,85.76
2023-04-02T09:33:44.370Z,85.33
2023-04-02T09:36:38.082Z,86.80
2023-04-02T09:39:17.923Z,88.93
2023-04-02T09:41:55.803Z,88.93
2023-04-02T09:44:40.206Z,87.98
2023-04-02T09:47:25.979Z,90.10
2023-04-02T09:50:15.739Z,89.04
2023-04-02T09:52:49.289Z,87.82
2023-04-02T09:55:22.511Z,87.21
2023-04-02T09:57:52.399Z,90.17
2023-04-02T10:00:32.585Z,89.86
2023-04-02T10:03:30.900Z,89.04
2023-04-02T10:06:18.098Z,88.23
2023-04-02T10:08:48.867Z,86.99
2023-04-02T10:11:46.697Z,86.71
2023-04-02T10:14:37.061Z,87.25
2023-04-02T10:17:20.294Z,88.56
2023-04-02T10:19:52.640Z,89.72
2023-04-02T10:22:22.762Z,92.99
2023-04-02T10:24:51.408Z,88.45
2023-04-02T10:27:41.908Z,87.92
2023-04-02T10:30:28.895Z,87.09
2023-04-02T10:33:20.453Z,89.70
2023-04-02T10:36:02.044Z,81.92
2023-04-02T10:38:59.053Z,82.91
2023-04-02T10:41:30.888Z,80.34
2023-04-02T10:44:16.718Z,76.91
2023-04-02T10:47:12.455Z,74.98
2023-04-02T10:50:14.758Z,72.44
2023-04-02T10:52:56.453Z,75.91
2023-04-02T10:55:29.273Z,74.44
2023-04-02T10:58:06.290Z,72.19
2023-04-02T11:00:46.309Z,71.62
2023-04-02T11:03:30.343Z,71.66
2023-04-02T11:06:02.575Z,71.96
2023-04-02T11:08:43.578Z,70.12
2023-04-02T11:11:23.665Z,67.11
2023-04-02T11:14:13.004Z,67.95
2023-04-02T11:16:44.428Z,65.09
2023-04-02T11:19:18.738Z,63.69
2023-04-02T11:21:57.941Z,61.06
2023-04-02T11:24:37.823Z,61.73
2023-04-02T11:27:14.879Z,60.35
2023-04-02T11:29:47.119Z,63.05
2023-04-02T11:32:22.942Z,62.13
2023-04-02T11:35:05.143Z,63.29
2023-04-02T11:37:45.059Z,62.40
2023-04-02T11:40:16.675Z,61.52
2023-04-02T11:43:01.266Z,60.54
2023-04-02T11:45:33.750Z,56.47
2023-04-02T11:48:17.664Z,56.00
2023-04-02T11:50:46.589Z,56.06
2023-04-02T11:53:21.281Z,55.69
2023-04-02T11:56:04.221Z,54.50
2023-04-02T11:58:50.204Z,60.41
2023-04-02T12:01:31.820Z,69.48
2023-04-02T12:04:31.096Z,71.96
2023-04-02T12:07:18.984Z,73.83
2023-04-02T12:09:59.525Z,75.17
2023-04-02T12:12:33.381Z,75.33
2023-04-02T12:15:01.630Z,75.03
2023-04-02T12:17:37.468Z,75.40
2023-04-02T12:20:28.965Z,74.81
2023-04-02T12:22:58.664Z,75.45
2023-04-02T12:25:40.153Z,76.82
2023-04-02T12:28:12.328Z,79.21
2023-04-02T12:30:41.758Z,77.48
2023-04-02T12:33:33.932Z,77.20
2023-04-02T12:36:04.496Z,75.40
2023-04-02T12:38:37.040Z,73.77
2023-04-02T12:41:19.307Z,72.52
2023-04-02T12:43:47.549Z,74.50
2023-04-02T12:46:15.739Z,77.16
2023-04-02T12:48:43.958Z,75.27
2023-04-02T12:51:12.103Z,74.24
2023-04-02T12:53:42.755Z,71.63
2023-04-02T12:56:20.196Z,72.90
2023-04-02T12:58:59.376Z,68.12
2023-04-02T13:01:30.944Z,67.88
2023-04-02T13:04:05.048Z,64.98
2023-04-02T13:06:33.443Z,64.31
2023-04-02T13:09:04.141Z,65.00
2023-04-02T13:11:41.941Z,61.89
2023-04-02T13:14:20.141Z,61.56
2023-04-02T13:16:50.839Z,62.23
2023-04-02T13:19:26.129Z,60.54
2023-04-02T13:21:56.038Z,57.26
2023-04-02T13:24:31.683Z,56.33
2023-04-02T13:27:02.051Z,58.34
2023-04-02T13:29:32.212Z,57.87
2023-04-02T13:32:02.563Z,54.80
2023-04-02T13:34:31.208Z,53.24
2023-04-02T13:37:00.062Z,52.67
2023-04-02T13:39:30.412Z,52.48
2023-04-02T13:42:00.579Z,50.19
2023-04-02T13:44:31.791Z,49.81
2023-04-02T13:47:00.877Z,52.09
2023-04-02T13:49:29.529Z,51.32
2023-04-02T13:52:05.932Z,48.12
2023-04-02T13:54:43.461Z,48.90
2023-04-02T14:27:57.119Z,41.77
2023-04-02T14:30:46.924Z,43.31
2023-04-02T14:33:30.264Z,42.37
2023-04-02T14:36:09.063Z,42.39
2023-04-02T14:38:44.905Z,41.58
2023-04-02T14:41:30.338Z,42.06
2023-04-02T14:44:07.560Z,39.60
2023-04-02T14:46:38.269Z,39.86
2023-04-02T14:49:22.714Z,38.73
2023-04-02T14:52:10.571Z,39.25
2023-04-02T14:55:03.469Z,40.73
2023-04-02T14:57:52.807Z,37.79
2023-04-02T15:00:41.428Z,39.96
2023-04-02T15:03:18.547Z,39.37
2023-04-02T15:05:48.992Z,42.29
2023-04-02T15:08:22.246Z,41.81
2023-04-02T15:11:02.993Z,39.49
2023-04-02T15:13:40.134Z,40.88
2023-04-02T15:16:21.349Z,40.90
2023-04-02T15:19:01.489Z,40.71
2023-04-02T15:21:57.505Z,40.28
2023-04-02T15:24:59.810Z,42.87
2023-04-02T15:28:09.848Z,38.73
2023-04-02T15:30:43.356Z,40.08
2023-04-02T15:33:30.002Z,39.80
2023-04-02T15:36:21.665Z,40.70
2023-04-02T15:38:56.661Z,42.08
2023-04-02T15:41:36.372Z,40.81
2023-04-02T15:44:15.242Z,42.29
2023-04-02T15:46:46.636Z,40.27
2023-04-02T15:49:32.877Z,44.37
2023-04-02T15:52:22.630Z,43.33
2023-04-02T15:55:02.636Z,41.51
2023-04-02T15:58:05.735Z,41.63
2023-04-02T16:00:53.932Z,41.17
2023-04-02T16:03:57.212Z,42.83
2023-04-02T16:06:53.437Z,43.93
2023-04-02T16:09:31.244Z,43.49
2023-04-02T16:12:11.604Z,41.13
2023-04-02T16:14:41.601Z,42.57
2023-04-02T16:17:25.704Z,45.33
2023-04-02T16:20:05.715Z,47.31
2023-04-02T16:22:38.023Z,47.66
2023-04-02T16:25:19.741Z,48.65
2023-04-02T16:27:59.835Z,47.53
2023-04-02T16:30:28.510Z,50.30
2023-04-02T16:33:23.490Z,47.69
2023-04-02T16:36:03.125Z,48.46
2023-04-02T16:38:39.592Z,47.47
2023-04-02T16:41:31.789Z,48.46
2023-04-02T16:44:18.702Z,48.07
2023-04-02T16:47:12.174Z,46.91
2023-04-02T16:49:53.183Z,46.61
2023-04-02T16:52:46.408Z,46.67
2023-04-02T16:55:33.011Z,46.61
2023-04-02T16:58:28.132Z,49.06
2023-04-02T17:01:05.266Z,47.12
2023-04-02T17:03:39.582Z,47.54
2023-04-02T17:06:13.693Z,49.89
2023-04-02T17:08:50.796Z,50.05
2023-04-02T17:11:41.130Z,52.24
2023-04-02T17:14:38.737Z,52.36
2023-04-02T17:17:18.182Z,54.26
2023-04-02T17:19:49.004Z,53.16
2023-04-02T17:22:22.555Z,51.53
2023-04-02T17:24:59.149Z,53.44
2023-04-02T17:27:37.881Z,52.10
2023-04-02T17:30:17.306Z,50.30
2023-04-02T17:32:45.686Z,49.77
2023-04-02T17:35:33.495Z,52.23
2023-04-02T17:38:13.421Z,52.24
2023-04-02T17:41:08.503Z,53.16
2023-04-02T17:43:57.792Z,51.01
2023-04-02T17:46:48.748Z,53.29
2023-04-02T17:49:28.893Z,53.57
2023-04-02T17:52:24.320Z,52.00
2023-04-02T17:55:05.349Z,54.36
2023-04-02T17:57:52.341Z,54.77
2023-04-02T18:00:37.471Z,53.52
2023-04-02T18:03:49.619Z,53.85
2023-04-02T18:06:25.433Z,54.63
2023-04-02T18:09:31.181Z,55.20
2023-04-02T18:12:01.958Z,49.85
2023-04-02T18:14:56.432Z,51.25
2023-04-02T18:17:33.028Z,55.25
2023-04-02T18:20:20.867Z,59.65
2023-04-02T18:23:06.444Z,59.55
2023-04-02T18:26:00.910Z,61.33
2023-04-02T18:28:44.162Z,63.80
2023-04-02T18:31:28.635Z,64.38
2023-04-02T18:34:11.775Z,65.68
2023-04-02T18:37:06.743Z,67.15
2023-04-02T18:39:41.281Z,68.06
2023-04-02T18:42:34.657Z,67.48
2023-04-02T18:45:33.033Z,67.64
2023-04-02T18:48:22.515Z,68.60
2023-04-02T18:50:50.452Z,69.17
2023-04-02T18:53:23.204Z,69.80
2023-04-02T18:56:07.183Z,70.87
2023-04-02T18:58:43.042Z,71.92
2023-04-02T19:01:16.296Z,71.27
2023-04-02T19:03:50.638Z,72.71
2023-04-02T19:06:31.145Z,71.67
2023-04-02T19:09:08.200Z,71.78
2023-04-02T19:11:36.569Z,71.82
2023-04-02T19:14:17.504Z,72.90
2023-04-02T19:16:45.616Z,73.11
2023-04-02T19:19:23.197Z,72.32
2023-04-02T19:21:51.823Z,73.94
2023-04-02T19:24:56.221Z,73.83
2023-04-02T19:27:48.077Z,73.57
2023-04-02T19:30:39.147Z,71.62
2023-04-02T19:33:25.907Z,70.76
2023-04-02T19:36:01.792Z,70.56
2023-04-02T19:38:41.779Z,69.39
2023-04-02T19:41:09.769Z,71.17
2023-04-02T19:43:37.694Z,70.51
2023-04-02T19:46:06.505Z,69.68
2023-04-02T19:48:48.402Z,70.28
2023-04-02T19:51:16.560Z,69.24
2023-04-02T19:53:44.574Z,68.38
2023-04-02T19:56:12.630Z,70.14
2023-04-02T19:58:40.610Z,69.12
2023-04-02T20:01:08.986Z,68.20
2023-04-02T20:03:36.992Z,68.90
2023-04-02T20:06:05.644Z,68.34
2023-04-02T20:08:33.772Z,67.73
2023-04-02T20:11:01.830Z,67.73
2023-04-02T20:13:29.782Z,67.21
2023-04-02T20:16:02.230Z,65.83
2023-04-02T20:18:32.305Z,69.32
2023-04-02T20:21:04.797Z,68.76
2023-04-02T20:23:34.045Z,67.25
2023-04-02T20:26:04.089Z,68.99
2023-04-02T20:28:32.371Z,70.87
2023-04-02T20:31:18.913Z,70.95
2023-04-02T20:33:48.250Z,72.07
2023-04-02T20:36:18.140Z,71.38
2023-04-02T20:38:46.110Z,72.11
2023-04-02T20:41:16.929Z,72.32
2023-04-02T20:43:45.225Z,74.31
2023-04-02T20:46:13.658Z,76.68
2023-04-02T20:48:41.841Z,75.84
2023-04-02T20:51:13.392Z,71.96
2023-04-02T20:53:42.397Z,71.80
2023-04-02T20:56:17.071Z,72.81
2023-04-02T20:58:45.208Z,72.40
2023-04-02T21:01:27.363Z,71.21
2023-04-02T21:04:02.978Z,71.44
2023-04-02T21:06:33.988Z,72.32
2023-04-02T21:09:07.032Z,71.86
2023-04-02T21:11:37.568Z,70.19
2023-04-02T21:14:05.769Z,74.24
2023-04-02T21:16:35.871Z,72.00
2023-04-02T21:19:07.507Z,72.39
2023-04-02T21:21:37.528Z,72.88
2023-04-02T21:24:08.132Z,74.61
2023-04-02T21:26:39.342Z,71.37
2023-04-02T21:29:07.498Z,71.41
2023-04-02T21:31:41.813Z,70.69
2023-04-02T21:34:14.485Z,69.55
2023-04-02T21:36:47.577Z,69.79
2023-04-02T21:39:21.767Z,68.08
2023-04-02T21:41:51.113Z,68.25
2023-04-02T21:44:21.982Z,67.29
2023-04-02T21:46:54.108Z,67.98
2023-04-02T21:49:26.314Z,67.53
2023-04-02T21:51:54.313Z,67.29
2023-04-02T21:54:22.368Z,68.02
2023-04-02T21:56:50.641Z,67.81
2023-04-02T21:59:21.123Z,66.89
2023-04-02T22:01:51.228Z,66.90
2023-04-02T22:04:24.544Z,68.91
2023-04-02T22:06:53.432Z,68.32
2023-04-02T22:09:23.911Z,72.52
2023-04-02T22:11:55.601Z,72.66
2023-04-02T22:14:23.724Z,72.81
2023-04-02T22:16:52.349Z,72.64
2023-04-02T22:19:21.133Z,73.21
2023-04-02T22:21:49.173Z,73.42
2023-04-02T22:24:25.257Z,74.42
2023-04-02T22:26:53.843Z,73.59
2023-04-02T22:29:21.884Z,73.90
2023-04-02T22:31:49.847Z,74.02
2023-04-02T22:34:17.733Z,74.58
2023-04-02T22:36:45.533Z,75.23
2023-04-02T22:39:13.495Z,77.67
2023-04-02T22:41:41.462Z,75.35
2023-04-02T22:44:14.357Z,75.09
2023-04-02T22:46:42.393Z,74.14
2023-04-02T22:49:11.864Z,74.45
2023-04-02T22:51:39.794Z,74.58
2023-04-02T22:54:07.693Z,75.36
2023-04-02T22:56:37.691Z,75.75
2023-04-02T22:59:06.004Z,76.09
2023-04-02T23:01:36.054Z,77.15
2023-04-02T23:04:05.459Z,77.65
2023-04-02T23:06:33.753Z,79.15
2023-04-02T23:09:01.700Z,77.86
2023-04-02T23:11:29.662Z,77.48
2023-04-02T23:13:58.317Z,77.95
2023-04-02T23:16:28.019Z,77.58
2023-04-02T23:18:56.575Z,78.60
2023-04-02T23:21:26.211Z,79.70
2023-04-02T23:23:54.287Z,78.66
2023-04-02T23:26:24.938Z,78.75
2023-04-02T23:28:52.865Z,78.29
2023-04-02T23:31:23.013Z,77.73
2023-04-02T23:33:52.474Z,78.68
2023-04-02T23:36:24.794Z,77.44
2023-04-02T23:38:55.610Z,77.87
2023-04-02T23:41:27.106Z,79.26
2023-04-02T23:43:56.374Z,78.93
2023-04-02T23:46:25.330Z,79.03
2023-04-02T23:48:53.894Z,78.89
2023-04-02T23:51:22.786Z,79.39
2023-04-02T23:53:51.802Z,79.39
2023-04-02T23:56:20.191Z,77.84
2023-04-02T23:58:48.899Z,78.00
